Weather at Prefeito Renato Moreira Airport

Public forecast

Using degrees Celsius for public forecast. Weather courtesy of forecast.io.

Current aviation weather report (METAR) for Prefeito Renato Moreira Airport

Retrieved 2021/04/12 13:00 UTC (41 minutes ago):

SBIZ 121300Z 14006KT 9999 SCT018 29/24 Q1013

Aviation forecast (TAF) for Prefeito Renato Moreira Airport

Retrieved 2021/04/12 12:27 UTC (1 hour ago):

TAF SBIZ 120900Z 1212/1224 14005KT 9999 SCT030 TX29/1217Z TN27/1223Z BECMG 1218/1221 21005KT BKN025 RMK PGY